createdAt,value
2023-03-29T00:01:41.953Z,50.90
2023-03-29T00:04:10.131Z,50.90
2023-03-29T00:06:37.676Z,51.50
2023-03-29T00:09:05.787Z,50.90
2023-03-29T00:11:32.761Z,50.90
2023-03-29T00:13:59.474Z,50.90
2023-03-29T00:16:26.453Z,50.40
2023-03-29T00:18:53.094Z,50.90
2023-03-29T00:21:19.751Z,50.90
2023-03-29T00:23:46.324Z,50.90
2023-03-29T00:26:12.983Z,50.90
2023-03-29T00:28:39.961Z,50.90
2023-03-29T00:31:12.591Z,50.90
2023-03-29T00:33:40.005Z,50.90
2023-03-29T00:36:07.481Z,51.00
2023-03-29T00:38:34.635Z,50.90
2023-03-29T00:41:02.156Z,50.80
2023-03-29T00:43:29.012Z,50.90
2023-03-29T00:45:55.724Z,50.90
2023-03-29T00:48:25.877Z,50.80
2023-03-29T00:50:59.599Z,50.90
2023-03-29T00:53:28.588Z,50.80
2023-03-29T00:56:19.754Z,50.30
2023-03-29T00:59:04.755Z,50.90
2023-03-29T01:01:42.109Z,50.90
2023-03-29T01:04:21.399Z,50.90
2023-03-29T01:06:56.965Z,50.90
2023-03-29T01:09:30.239Z,50.90
2023-03-29T01:12:00.899Z,50.90
2023-03-29T01:14:37.953Z,50.90
2023-03-29T01:17:04.881Z,50.80
2023-03-29T01:19:40.620Z,50.80
2023-03-29T01:22:28.215Z,50.80
2023-03-29T01:25:00.860Z,50.90
2023-03-29T01:27:53.865Z,50.90
2023-03-29T01:30:31.689Z,50.90
2023-03-29T01:33:12.464Z,50.90
2023-03-29T01:35:57.557Z,50.90
2023-03-29T01:38:49.547Z,50.80
2023-03-29T01:41:16.479Z,50.90
2023-03-29T01:43:55.370Z,50.80
2023-03-29T01:46:34.923Z,50.80
2023-03-29T01:49:11.047Z,50.80
2023-03-29T01:51:54.908Z,50.80
2023-03-29T01:54:34.952Z,51.40
2023-03-29T01:57:04.730Z,51.00
2023-03-29T01:59:34.097Z,51.00
2023-03-29T02:02:04.794Z,50.90
2023-03-29T02:04:39.458Z,50.90
2023-03-29T02:07:09.005Z,50.80
2023-03-29T02:09:37.569Z,51.00
2023-03-29T02:12:06.909Z,50.80
2023-03-29T02:14:33.523Z,50.80
2023-03-29T02:17:27.774Z,50.80
2023-03-29T02:20:00.631Z,50.80
2023-03-29T02:22:37.378Z,50.80
2023-03-29T02:25:08.876Z,50.30
2023-03-29T02:27:37.701Z,50.80
2023-03-29T02:30:06.728Z,50.80
2023-03-29T02:32:49.290Z,50.80
2023-03-29T02:35:39.103Z,50.80
2023-03-29T02:38:10.460Z,50.70
2023-03-29T02:40:39.007Z,50.80
2023-03-29T02:43:07.514Z,50.80
2023-03-29T02:45:35.909Z,50.80
2023-03-29T02:48:07.816Z,50.80
2023-03-29T02:50:38.523Z,50.80
2023-03-29T02:53:11.448Z,50.80
2023-03-29T02:55:39.056Z,50.80
2023-03-29T02:58:08.347Z,50.80
2023-03-29T03:00:41.235Z,50.80
2023-03-29T03:03:08.606Z,50.80
2023-03-29T03:05:36.069Z,50.80
2023-03-29T03:08:02.765Z,51.90
2023-03-29T03:10:29.359Z,50.80
2023-03-29T03:12:56.244Z,50.80
2023-03-29T03:15:22.858Z,50.90
2023-03-29T03:17:49.524Z,50.90
2023-03-29T03:20:16.292Z,50.90
2023-03-29T03:22:49.152Z,50.90
2023-03-29T03:25:16.984Z,51.00
2023-03-29T03:27:43.794Z,51.00
2023-03-29T03:30:11.224Z,51.00
2023-03-29T03:32:38.434Z,51.00
2023-03-29T03:35:07.411Z,51.00
2023-03-29T03:37:34.404Z,51.00
2023-03-29T03:40:01.188Z,51.10
2023-03-29T03:42:30.929Z,51.10
2023-03-29T03:44:58.043Z,51.00
2023-03-29T03:47:24.746Z,51.00
2023-03-29T03:49:51.514Z,51.00
2023-03-29T03:52:19.125Z,51.10
2023-03-29T03:54:46.588Z,51.10
2023-03-29T03:57:13.436Z,51.10
2023-03-29T03:59:40.101Z,51.10
2023-03-29T04:02:07.511Z,51.00
2023-03-29T04:04:34.689Z,51.10
2023-03-29T04:07:04.690Z,51.00
2023-03-29T04:09:33.113Z,51.10
2023-03-29T04:12:01.507Z,51.10
2023-03-29T04:14:32.083Z,51.10
2023-03-29T04:16:58.698Z,50.50
2023-03-29T04:19:25.386Z,51.10
2023-03-29T04:21:52.409Z,51.10
2023-03-29T04:24:25.501Z,50.50
2023-03-29T04:26:52.099Z,51.00
2023-03-29T04:29:18.672Z,51.00
2023-03-29T04:31:45.487Z,51.10
2023-03-29T04:34:12.223Z,51.10
2023-03-29T04:36:39.072Z,51.00
2023-03-29T04:39:07.647Z,51.00
2023-03-29T04:41:34.834Z,51.00
2023-03-29T04:44:03.362Z,51.00
2023-03-29T04:46:30.336Z,50.90
2023-03-29T04:48:57.380Z,50.90
2023-03-29T04:51:24.333Z,50.90
2023-03-29T04:53:51.035Z,50.90
2023-03-29T04:56:17.812Z,50.90
2023-03-29T04:58:45.123Z,50.90
2023-03-29T05:01:11.837Z,50.90
2023-03-29T05:03:38.639Z,50.90
2023-03-29T05:06:09.421Z,50.90
2023-03-29T05:08:39.052Z,50.90
2023-03-29T05:11:07.427Z,50.90
2023-03-29T05:13:35.244Z,50.80
2023-03-29T05:16:02.622Z,50.80
2023-03-29T05:18:30.899Z,50.80
2023-03-29T05:20:58.542Z,50.70
2023-03-29T05:23:25.666Z,50.80
2023-03-29T05:25:53.543Z,50.80
2023-03-29T05:28:21.171Z,50.80
2023-03-29T05:30:48.567Z,50.80
2023-03-29T05:33:15.234Z,50.80
2023-03-29T05:35:41.842Z,50.80
2023-03-29T05:38:08.759Z,50.80
2023-03-29T05:40:35.777Z,50.80
2023-03-29T05:43:02.744Z,50.90
2023-03-29T05:45:29.636Z,50.80
2023-03-29T05:47:57.531Z,50.90
2023-03-29T05:50:24.664Z,51.40
2023-03-29T05:52:51.514Z,50.90
2023-03-29T05:55:18.403Z,50.80
2023-03-29T05:57:45.075Z,50.80
2023-03-29T06:00:23.752Z,50.90
2023-03-29T06:02:52.486Z,50.90
2023-03-29T06:05:22.638Z,50.80
2023-03-29T06:07:49.381Z,50.90
2023-03-29T06:10:16.062Z,50.90
2023-03-29T06:12:42.675Z,50.90
2023-03-29T06:15:10.137Z,50.90
2023-03-29T06:17:37.063Z,50.90
2023-03-29T06:20:08.625Z,50.90
2023-03-29T06:22:35.831Z,50.70
2023-03-29T06:25:02.502Z,50.90
2023-03-29T06:27:29.128Z,50.40
2023-03-29T06:29:55.729Z,51.00
2023-03-29T06:32:23.297Z,50.80
2023-03-29T06:34:53.083Z,50.90
2023-03-29T06:37:21.371Z,50.50
2023-03-29T06:39:53.373Z,51.00
2023-03-29T06:42:21.819Z,50.90
2023-03-29T06:44:49.548Z,51.00
2023-03-29T06:47:17.219Z,51.00
2023-03-29T06:49:44.380Z,50.90
2023-03-29T06:52:11.310Z,51.00
2023-03-29T06:54:38.794Z,51.00
2023-03-29T06:57:05.468Z,51.00
2023-03-29T06:59:32.113Z,51.10
2023-03-29T07:01:58.906Z,51.10
2023-03-29T07:04:25.636Z,51.10
2023-03-29T07:07:01.305Z,50.60
2023-03-29T07:09:32.332Z,51.00
2023-03-29T07:11:59.725Z,51.00
2023-03-29T07:14:28.799Z,50.50
2023-03-29T07:16:56.134Z,50.50
2023-03-29T07:19:24.227Z,51.00
2023-03-29T07:21:53.220Z,51.10
2023-03-29T07:24:22.907Z,51.10
2023-03-29T07:27:03.200Z,50.60
2023-03-29T07:29:31.338Z,51.10
2023-03-29T07:31:58.039Z,51.10
2023-03-29T07:34:24.627Z,51.10
2023-03-29T07:36:51.938Z,50.50
2023-03-29T07:39:18.641Z,51.10
2023-03-29T07:41:45.251Z,51.10
2023-03-29T07:44:11.903Z,50.90
2023-03-29T07:46:38.582Z,51.10
2023-03-29T07:49:06.748Z,51.10
2023-03-29T07:51:33.342Z,51.10
2023-03-29T07:54:00.160Z,51.10
2023-03-29T07:56:26.955Z,51.00
2023-03-29T07:58:53.570Z,51.00
2023-03-29T08:01:20.301Z,50.90
2023-03-29T08:03:47.220Z,51.00
2023-03-29T08:06:16.018Z,50.40
2023-03-29T08:08:42.685Z,50.90
2023-03-29T08:11:10.252Z,50.90
2023-03-29T08:13:37.277Z,50.90
2023-03-29T08:16:05.687Z,50.50
2023-03-29T08:18:34.683Z,50.90
2023-03-29T08:21:01.912Z,50.90
2023-03-29T08:23:28.776Z,50.90
2023-03-29T08:25:55.576Z,50.90
2023-03-29T08:28:22.274Z,50.80
2023-03-29T08:30:49.630Z,50.80
2023-03-29T08:33:16.924Z,50.90
2023-03-29T08:35:43.810Z,50.30
2023-03-29T08:38:11.093Z,50.80
2023-03-29T08:40:37.856Z,50.80
2023-03-29T08:43:15.776Z,50.90
2023-03-29T08:45:54.423Z,50.40
2023-03-29T08:48:33.900Z,50.70
2023-03-29T08:51:06.704Z,51.00
2023-03-29T08:53:42.322Z,50.80
2023-03-29T08:56:14.962Z,50.90
2023-03-29T08:58:43.309Z,50.90
2023-03-29T09:01:11.365Z,50.80
2023-03-29T09:03:50.296Z,50.80
2023-03-29T09:06:20.629Z,50.80
2023-03-29T09:08:49.654Z,50.80
2023-03-29T09:11:56.774Z,50.80
2023-03-29T09:14:32.409Z,50.30
2023-03-29T09:17:02.029Z,50.80
2023-03-29T09:19:42.553Z,50.80
2023-03-29T09:22:43.736Z,50.90
2023-03-29T09:25:25.130Z,50.40
2023-03-29T09:28:05.767Z,50.80
2023-03-29T09:30:39.540Z,50.80
2023-03-29T09:33:15.325Z,50.80
2023-03-29T09:36:03.111Z,50.30
2023-03-29T09:38:31.994Z,50.70
2023-03-29T09:41:21.345Z,50.70
2023-03-29T09:43:50.402Z,50.80
2023-03-29T09:46:36.264Z,50.70
2023-03-29T09:49:10.140Z,50.70
2023-03-29T09:51:38.367Z,50.80
2023-03-29T09:54:05.082Z,50.20
2023-03-29T09:56:32.035Z,50.70
2023-03-29T09:58:58.690Z,50.70
2023-03-29T10:01:37.191Z,50.50
2023-03-29T10:04:07.556Z,50.70
2023-03-29T10:06:35.370Z,50.60
2023-03-29T10:09:02.943Z,50.70
2023-03-29T10:11:38.323Z,50.70
2023-03-29T10:14:12.590Z,50.70
2023-03-29T10:16:47.505Z,50.70
2023-03-29T10:19:30.756Z,50.70
2023-03-29T10:21:59.969Z,50.70
2023-03-29T10:24:27.382Z,50.90
2023-03-29T10:26:58.755Z,50.80
2023-03-29T10:29:27.604Z,50.90
2023-03-29T10:31:54.793Z,50.90
2023-03-29T10:34:25.823Z,50.80
2023-03-29T10:37:00.943Z,50.40
2023-03-29T10:39:32.386Z,50.90
2023-03-29T10:42:00.911Z,50.80
2023-03-29T10:44:34.177Z,50.30
2023-03-29T10:47:20.142Z,50.80
2023-03-29T10:49:58.645Z,50.90
2023-03-29T10:52:25.937Z,50.80
2023-03-29T10:55:13.817Z,50.90
2023-03-29T10:58:02.846Z,50.90
2023-03-29T11:00:40.672Z,50.90
2023-03-29T11:03:40.480Z,50.90
2023-03-29T11:06:27.807Z,51.00
2023-03-29T11:09:04.709Z,50.90
2023-03-29T11:12:01.272Z,50.90
2023-03-29T11:14:55.582Z,50.30
2023-03-29T11:17:27.877Z,51.00
2023-03-29T11:20:01.864Z,50.80
2023-03-29T11:22:38.002Z,51.00
2023-03-29T11:25:30.932Z,50.40
2023-03-29T11:28:15.496Z,51.00
2023-03-29T11:31:11.613Z,51.00
2023-03-29T11:34:11.448Z,51.00
2023-03-29T11:36:59.161Z,50.90
2023-03-29T11:39:44.018Z,50.90
2023-03-29T11:42:20.089Z,50.90
2023-03-29T11:44:49.384Z,51.00
2023-03-29T11:47:22.546Z,50.90
2023-03-29T11:49:56.105Z,51.10
2023-03-29T11:52:33.749Z,51.10
2023-03-29T11:55:15.246Z,51.00
2023-03-29T11:57:45.414Z,50.90
2023-03-29T12:00:30.863Z,50.90
2023-03-29T12:03:15.260Z,50.90
2023-03-29T12:05:52.061Z,51.00
2023-03-29T12:08:41.910Z,50.90
2023-03-29T12:11:33.297Z,51.00
2023-03-29T12:14:14.050Z,51.00
2023-03-29T12:16:53.286Z,51.00
2023-03-29T12:19:25.746Z,51.00
2023-03-29T12:21:56.010Z,51.20
2023-03-29T12:24:25.819Z,51.10
2023-03-29T12:26:58.931Z,50.70
2023-03-29T12:29:34.803Z,51.10
2023-03-29T12:32:31.862Z,51.00
2023-03-29T12:35:19.911Z,50.90
2023-03-29T12:38:01.640Z,52.90
2023-03-29T12:40:35.639Z,51.00
2023-03-29T12:43:08.471Z,51.10
2023-03-29T12:45:48.544Z,51.20
2023-03-29T12:48:19.660Z,51.00
2023-03-29T12:50:51.243Z,51.20
2023-03-29T12:53:35.831Z,51.00
2023-03-29T12:56:02.597Z,51.20
2023-03-29T12:59:07.520Z,51.10
2023-03-29T13:01:37.573Z,51.10
2023-03-29T13:04:19.781Z,50.90
2023-03-29T13:06:49.467Z,51.00
2023-03-29T13:09:46.538Z,51.00
2023-03-29T13:12:15.977Z,51.00
2023-03-29T13:14:53.090Z,51.10
2023-03-29T13:17:26.560Z,51.00
2023-03-29T13:20:30.203Z,51.00
2023-03-29T13:23:16.972Z,51.00
2023-03-29T13:25:50.691Z,51.00
2023-03-29T13:28:46.654Z,51.10
2023-03-29T13:31:33.372Z,51.10
2023-03-29T13:37:47.231Z,51.10
2023-03-29T13:40:44.441Z,51.30
2023-03-29T13:43:29.396Z,51.30
2023-03-29T13:45:58.797Z,51.30
2023-03-29T13:48:45.827Z,51.30
2023-03-29T13:51:18.327Z,51.30
2023-03-29T13:53:53.038Z,51.30
2023-03-29T13:56:24.971Z,50.80
2023-03-29T13:58:55.744Z,51.40
2023-03-29T14:01:25.838Z,51.40
2023-03-29T14:03:53.156Z,51.50
2023-03-29T14:06:31.744Z,51.50
2023-03-29T14:09:04.304Z,51.50
2023-03-29T14:11:31.444Z,51.60
2023-03-29T14:14:00.793Z,51.70
2023-03-29T14:16:31.330Z,51.80
2023-03-29T14:19:34.354Z,52.00
2023-03-29T14:22:02.106Z,52.00
2023-03-29T14:24:37.614Z,51.90
2023-03-29T14:27:06.835Z,51.70
2023-03-29T14:29:34.471Z,51.80
2023-03-29T14:32:18.890Z,51.90
2023-03-29T14:34:50.018Z,51.90
2023-03-29T14:37:22.557Z,51.40
2023-03-29T14:39:50.473Z,51.90
2023-03-29T14:42:23.387Z,51.80
2023-03-29T14:44:51.000Z,51.80
2023-03-29T14:47:30.803Z,51.90
2023-03-29T14:50:01.526Z,52.00
2023-03-29T14:52:30.449Z,52.00
2023-03-29T14:55:00.528Z,52.00
2023-03-29T14:57:32.486Z,52.00
2023-03-29T15:00:01.771Z,52.00
2023-03-29T15:02:33.146Z,52.10
2023-03-29T15:05:23.150Z,52.10
2023-03-29T15:07:51.395Z,52.10
2023-03-29T15:10:19.313Z,52.10
2023-03-29T15:12:46.448Z,51.10
2023-03-29T15:15:13.599Z,52.20
2023-03-29T15:17:50.394Z,52.20
2023-03-29T15:20:25.479Z,52.20
2023-03-29T15:22:53.868Z,52.20
2023-03-29T15:25:21.090Z,52.30
2023-03-29T15:27:54.595Z,52.30
2023-03-29T15:30:57.331Z,52.20
2023-03-29T15:33:37.795Z,52.30
2023-03-29T15:36:06.710Z,52.30
2023-03-29T15:38:43.314Z,52.40
2023-03-29T15:41:13.342Z,52.40
2023-03-29T15:43:41.083Z,52.30
2023-03-29T15:46:08.128Z,52.20
2023-03-29T15:48:36.515Z,52.40
2023-03-29T15:51:06.524Z,52.50
2023-03-29T15:53:33.875Z,52.50
2023-03-29T15:56:03.851Z,52.50
2023-03-29T15:58:32.429Z,52.50
2023-03-29T16:01:23.505Z,52.50
2023-03-29T16:03:50.807Z,52.60
2023-03-29T16:06:17.874Z,52.50
2023-03-29T16:08:44.759Z,52.50
2023-03-29T16:11:11.480Z,52.60
2023-03-29T16:13:38.190Z,52.60
2023-03-29T16:16:05.477Z,52.70
2023-03-29T16:18:32.325Z,52.70
2023-03-29T16:20:59.316Z,52.70
2023-03-29T16:23:26.475Z,52.70
2023-03-29T16:25:53.109Z,52.90
2023-03-29T16:28:19.899Z,52.80
2023-03-29T16:30:46.527Z,52.80
2023-03-29T16:33:13.357Z,52.80
2023-03-29T16:35:40.870Z,52.90
2023-03-29T16:38:08.950Z,52.50
2023-03-29T16:40:36.261Z,52.20
2023-03-29T16:43:02.950Z,52.20
2023-03-29T16:45:29.691Z,52.30
2023-03-29T16:47:56.945Z,52.40
2023-03-29T16:50:23.981Z,52.50
2023-03-29T16:52:53.431Z,52.60
2023-03-29T16:55:20.137Z,52.50
2023-03-29T16:57:48.371Z,52.50
2023-03-29T17:00:16.921Z,52.50
2023-03-29T17:02:44.371Z,52.60
2023-03-29T17:05:12.518Z,52.60
2023-03-29T17:07:39.772Z,52.70
2023-03-29T17:10:08.077Z,52.80
2023-03-29T17:12:35.352Z,52.50
2023-03-29T17:15:02.591Z,52.60
2023-03-29T17:17:29.455Z,52.70
2023-03-29T17:19:56.540Z,52.50
2023-03-29T17:22:23.836Z,52.60
2023-03-29T17:24:50.464Z,52.60
2023-03-29T17:27:17.403Z,52.70
2023-03-29T17:29:44.047Z,52.90
2023-03-29T17:32:10.695Z,52.90
2023-03-29T17:34:37.308Z,52.60
2023-03-29T17:37:04.517Z,52.00
2023-03-29T17:39:31.999Z,52.90
2023-03-29T17:41:58.644Z,52.80
2023-03-29T17:44:25.420Z,53.00
2023-03-29T17:46:52.175Z,52.90
2023-03-29T17:49:18.863Z,52.80
2023-03-29T17:51:46.129Z,52.90
2023-03-29T17:54:12.725Z,52.90
2023-03-29T17:56:39.479Z,53.00
2023-03-29T17:59:06.095Z,52.90
2023-03-29T18:01:32.993Z,53.00
2023-03-29T18:03:59.673Z,53.00
2023-03-29T18:06:26.301Z,53.00
2023-03-29T18:08:56.614Z,54.40
2023-03-29T18:11:24.614Z,53.00
2023-03-29T18:13:54.760Z,53.00
2023-03-29T18:16:21.959Z,53.00
2023-03-29T18:18:48.903Z,53.10
2023-03-29T18:21:16.925Z,52.90
2023-03-29T18:23:48.104Z,52.90
2023-03-29T18:26:16.249Z,53.00
2023-03-29T18:28:46.853Z,52.90
2023-03-29T18:31:14.069Z,53.00
2023-03-29T18:33:40.826Z,53.10
2023-03-29T18:36:11.868Z,52.80
2023-03-29T18:38:40.416Z,53.00
2023-03-29T18:41:08.501Z,53.10
2023-03-29T18:43:35.806Z,53.00
2023-03-29T18:46:03.127Z,53.10
2023-03-29T18:48:30.142Z,53.10
2023-03-29T18:50:57.706Z,53.20
2023-03-29T18:53:24.781Z,53.10
2023-03-29T18:55:51.443Z,53.10
2023-03-29T18:58:20.174Z,52.80
2023-03-29T19:00:46.902Z,52.70
2023-03-29T19:03:13.614Z,52.60
2023-03-29T19:05:40.400Z,52.20
2023-03-29T19:08:08.886Z,52.50
2023-03-29T19:10:39.391Z,52.70
2023-03-29T19:13:06.434Z,52.70
2023-03-29T19:15:34.501Z,52.10
2023-03-29T19:18:01.537Z,52.70
2023-03-29T19:20:29.238Z,52.70
2023-03-29T19:22:55.861Z,52.80
2023-03-29T19:25:22.580Z,52.70
2023-03-29T19:27:50.173Z,52.80
2023-03-29T19:30:18.216Z,52.80
2023-03-29T19:32:44.856Z,52.80
2023-03-29T19:35:12.743Z,52.90
2023-03-29T19:37:39.864Z,52.90
2023-03-29T19:40:08.787Z,53.00
2023-03-29T19:42:36.022Z,53.00
2023-03-29T19:45:03.828Z,53.00
2023-03-29T19:47:30.524Z,52.40
2023-03-29T19:49:58.375Z,53.00
2023-03-29T19:52:27.732Z,53.10
2023-03-29T19:54:58.175Z,53.10
2023-03-29T19:57:25.246Z,52.60
2023-03-29T19:59:53.835Z,52.80
2023-03-29T20:02:20.474Z,53.30
2023-03-29T20:04:47.449Z,53.00
2023-03-29T20:07:14.085Z,53.20
2023-03-29T20:09:43.890Z,53.70
2023-03-29T20:12:11.867Z,53.90
2023-03-29T20:14:40.086Z,54.30
2023-03-29T20:17:07.293Z,53.40
2023-03-29T20:19:36.391Z,53.60
2023-03-29T20:22:04.236Z,54.20
2023-03-29T20:24:32.416Z,53.60
2023-03-29T20:26:59.084Z,53.70
2023-03-29T20:29:25.877Z,53.70
2023-03-29T20:31:52.557Z,53.80
2023-03-29T20:34:19.204Z,53.70
2023-03-29T20:36:46.736Z,53.60
2023-03-29T20:39:17.496Z,53.50
2023-03-29T20:41:47.541Z,53.70
2023-03-29T20:44:16.800Z,53.70
2023-03-29T20:46:54.397Z,53.20
2023-03-29T20:49:26.253Z,53.70
2023-03-29T20:51:59.208Z,53.70
2023-03-29T20:54:26.411Z,53.70
2023-03-29T20:56:54.659Z,53.70
2023-03-29T20:59:22.813Z,53.60
2023-03-29T21:01:50.091Z,53.60
2023-03-29T21:04:17.746Z,53.50
2023-03-29T21:06:45.607Z,53.60
2023-03-29T21:09:13.416Z,53.60
2023-03-29T21:11:40.130Z,53.60
2023-03-29T21:14:06.954Z,53.60
2023-03-29T21:16:33.562Z,53.60
2023-03-29T21:19:00.404Z,53.60
2023-03-29T21:21:27.064Z,53.60
2023-03-29T21:23:53.651Z,53.60
2023-03-29T21:26:20.301Z,53.00
2023-03-29T21:28:48.471Z,53.50
2023-03-29T21:31:15.216Z,53.60
2023-03-29T21:33:41.859Z,53.70
2023-03-29T21:36:08.740Z,53.60
2023-03-29T21:38:35.621Z,53.60
2023-03-29T21:41:03.205Z,53.60
2023-03-29T21:43:30.204Z,53.60
2023-03-29T21:45:57.553Z,53.60
2023-03-29T21:48:24.271Z,53.60
2023-03-29T21:50:50.985Z,53.60
2023-03-29T21:53:18.203Z,53.60
2023-03-29T21:55:47.554Z,53.50
2023-03-29T21:58:14.321Z,53.60
2023-03-29T22:00:41.564Z,53.60
2023-03-29T22:03:08.340Z,53.50
2023-03-29T22:05:35.372Z,53.60
2023-03-29T22:08:02.588Z,53.60
2023-03-29T22:10:29.471Z,53.50
2023-03-29T22:12:56.960Z,53.50
2023-03-29T22:15:24.205Z,53.50
2023-03-29T22:17:53.161Z,53.50
2023-03-29T22:20:20.211Z,53.60
2023-03-29T22:22:51.768Z,53.50
2023-03-29T22:25:19.405Z,53.50
2023-03-29T22:27:47.891Z,53.50
2023-03-29T22:30:15.977Z,53.60
2023-03-29T22:32:42.825Z,53.50
2023-03-29T22:35:09.942Z,53.60
2023-03-29T22:37:41.805Z,53.60
2023-03-29T22:40:10.342Z,53.50
2023-03-29T22:42:37.139Z,53.50
2023-03-29T22:45:04.536Z,53.40
2023-03-29T22:47:31.168Z,53.40
2023-03-29T22:49:57.782Z,53.50
2023-03-29T22:52:24.433Z,53.50
2023-03-29T22:54:51.099Z,53.60
2023-03-29T22:57:17.756Z,53.50
2023-03-29T22:59:44.374Z,53.40
2023-03-29T23:02:10.983Z,53.50
2023-03-29T23:04:38.689Z,53.50
2023-03-29T23:07:06.337Z,53.50
2023-03-29T23:09:33.006Z,53.50
2023-03-29T23:12:01.022Z,53.50
2023-03-29T23:14:27.749Z,53.50
2023-03-29T23:16:54.358Z,53.40
2023-03-29T23:19:20.964Z,53.50
2023-03-29T23:21:47.590Z,53.40
2023-03-29T23:24:18.311Z,53.50
2023-03-29T23:26:45.601Z,53.50
2023-03-29T23:29:12.412Z,53.50
2023-03-29T23:31:39.068Z,53.30
2023-03-29T23:34:05.768Z,53.40
2023-03-29T23:36:32.393Z,53.40
2023-03-29T23:38:59.482Z,53.40
2023-03-29T23:41:28.218Z,54.00
2023-03-29T23:43:57.466Z,53.50
2023-03-29T23:46:24.457Z,53.50
2023-03-29T23:48:51.303Z,53.50
2023-03-29T23:51:22.518Z,53.50
2023-03-29T23:53:49.858Z,53.50
2023-03-29T23:56:16.783Z,52.80
2023-03-29T23:58:44.288Z,53.40
